sensor_id;sensor_type;location;lat;lon;timestamp;P1;durP1;ratioP1;P2;durP2;ratioP2
10335;SDS011;5213;53.548;9.930;2023-01-01T00:00:09;16.27;;;7.78;;
10335;SDS011;5213;53.548;9.930;2023-01-01T00:02:35;14.10;;;6.15;;
10335;SDS011;5213;53.548;9.930;2023-01-01T00:05:01;11.48;;;6.78;;
10335;SDS011;5213;53.548;9.930;2023-01-01T00:07:28;11.90;;;6.32;;
10335;SDS011;5213;53.548;9.930;2023-01-01T00:09:54;14.90;;;7.78;;
10335;SDS011;5213;53.548;9.930;2023-01-01T00:12:38;11.10;;;6.18;;
10335;SDS011;5213;53.548;9.930;2023-01-01T00:15:04;13.77;;;7.90;;
10335;SDS011;5213;53.548;9.930;2023-01-01T00:17:30;18.08;;;12.00;;
10335;SDS011;5213;53.548;9.930;2023-01-01T00:19:56;9.75;;;6.00;;
10335;SDS011;5213;53.548;9.930;2023-01-01T00:22:23;9.00;;;5.10;;
10335;SDS011;5213;53.548;9.930;2023-01-01T00:24:50;12.35;;;8.07;;
10335;SDS011;5213;53.548;9.930;2023-01-01T00:27:16;10.18;;;5.88;;
10335;SDS011;5213;53.548;9.930;2023-01-01T00:29:42;9.35;;;5.95;;
10335;SDS011;5213;53.548;9.930;2023-01-01T00:32:08;12.13;;;5.30;;
10335;SDS011;5213;53.548;9.930;2023-01-01T00:34:36;10.43;;;5.13;;
10335;SDS011;5213;53.548;9.930;2023-01-01T00:37:02;12.15;;;6.85;;
10335;SDS011;5213;53.548;9.930;2023-01-01T00:39:28;11.45;;;4.95;;
10335;SDS011;5213;53.548;9.930;2023-01-01T00:41:54;10.93;;;5.25;;
10335;SDS011;5213;53.548;9.930;2023-01-01T00:44:20;13.32;;;6.00;;
10335;SDS011;5213;53.548;9.930;2023-01-01T00:46:46;10.38;;;5.05;;
10335;SDS011;5213;53.548;9.930;2023-01-01T00:49:12;11.65;;;5.40;;
10335;SDS011;5213;53.548;9.930;2023-01-01T00:51:38;7.70;;;4.70;;
10335;SDS011;5213;53.548;9.930;2023-01-01T00:54:04;8.98;;;4.28;;
10335;SDS011;5213;53.548;9.930;2023-01-01T00:56:30;9.52;;;4.90;;
10335;SDS011;5213;53.548;9.930;2023-01-01T00:58:56;8.77;;;5.05;;
10335;SDS011;5213;53.548;9.930;2023-01-01T01:01:22;15.50;;;5.45;;
10335;SDS011;5213;53.548;9.930;2023-01-01T01:03:48;12.63;;;5.40;;
10335;SDS011;5213;53.548;9.930;2023-01-01T01:06:15;11.82;;;5.65;;
10335;SDS011;5213;53.548;9.930;2023-01-01T01:08:42;12.88;;;4.45;;
10335;SDS011;5213;53.548;9.930;2023-01-01T01:13:38;8.75;;;4.63;;
10335;SDS011;5213;53.548;9.930;2023-01-01T01:16:08;11.45;;;5.80;;
10335;SDS011;5213;53.548;9.930;2023-01-01T01:18:35;8.43;;;4.50;;
10335;SDS011;5213;53.548;9.930;2023-01-01T01:21:01;9.73;;;4.55;;
10335;SDS011;5213;53.548;9.930;2023-01-01T01:23:27;11.90;;;5.25;;
10335;SDS011;5213;53.548;9.930;2023-01-01T01:25:53;11.10;;;4.78;;
10335;SDS011;5213;53.548;9.930;2023-01-01T01:28:19;6.93;;;4.32;;
10335;SDS011;5213;53.548;9.930;2023-01-01T01:30:45;9.23;;;5.82;;
10335;SDS011;5213;53.548;9.930;2023-01-01T01:33:11;8.88;;;3.70;;
10335;SDS011;5213;53.548;9.930;2023-01-01T01:35:37;11.25;;;4.80;;
10335;SDS011;5213;53.548;9.930;2023-01-01T01:38:03;9.27;;;4.40;;
10335;SDS011;5213;53.548;9.930;2023-01-01T01:40:30;7.93;;;4.55;;
10335;SDS011;5213;53.548;9.930;2023-01-01T01:42:57;11.20;;;4.78;;
10335;SDS011;5213;53.548;9.930;2023-01-01T01:45:23;12.35;;;4.53;;
10335;SDS011;5213;53.548;9.930;2023-01-01T01:47:50;10.88;;;4.80;;
10335;SDS011;5213;53.548;9.930;2023-01-01T01:50:25;12.48;;;5.38;;
10335;SDS011;5213;53.548;9.930;2023-01-01T01:53:01;11.85;;;4.53;;
10335;SDS011;5213;53.548;9.930;2023-01-01T01:55:28;6.78;;;3.90;;
10335;SDS011;5213;53.548;9.930;2023-01-01T01:57:55;11.40;;;4.70;;
10335;SDS011;5213;53.548;9.930;2023-01-01T02:00:21;9.50;;;4.25;;
10335;SDS011;5213;53.548;9.930;2023-01-01T02:02:58;11.32;;;4.20;;
10335;SDS011;5213;53.548;9.930;2023-01-01T02:05:27;9.55;;;3.97;;
10335;SDS011;5213;53.548;9.930;2023-01-01T02:07:53;6.80;;;4.20;;
10335;SDS011;5213;53.548;9.930;2023-01-01T02:10:20;12.00;;;3.97;;
10335;SDS011;5213;53.548;9.930;2023-01-01T02:12:46;8.10;;;4.45;;
10335;SDS011;5213;53.548;9.930;2023-01-01T02:15:12;9.85;;;4.00;;
10335;SDS011;5213;53.548;9.930;2023-01-01T02:23:03;9.57;;;4.28;;
10335;SDS011;5213;53.548;9.930;2023-01-01T02:25:42;9.70;;;4.00;;
10335;SDS011;5213;53.548;9.930;2023-01-01T02:28:29;8.63;;;3.83;;
10335;SDS011;5213;53.548;9.930;2023-01-01T02:30:55;8.60;;;4.63;;
10335;SDS011;5213;53.548;9.930;2023-01-01T02:33:23;8.45;;;3.60;;
10335;SDS011;5213;53.548;9.930;2023-01-01T02:36:00;7.82;;;4.60;;
10335;SDS011;5213;53.548;9.930;2023-01-01T02:43:51;6.07;;;3.75;;
10335;SDS011;5213;53.548;9.930;2023-01-01T02:46:18;11.35;;;4.93;;
10335;SDS011;5213;53.548;9.930;2023-01-01T02:48:45;10.48;;;4.20;;
10335;SDS011;5213;53.548;9.930;2023-01-01T02:56:39;7.40;;;4.13;;
10335;SDS011;5213;53.548;9.930;2023-01-01T03:02:06;6.70;;;4.60;;
10335;SDS011;5213;53.548;9.930;2023-01-01T03:07:10;6.22;;;4.18;;
10335;SDS011;5213;53.548;9.930;2023-01-01T03:12:28;8.75;;;4.60;;
10335;SDS011;5213;53.548;9.930;2023-01-01T03:17:53;9.05;;;5.63;;
10335;SDS011;5213;53.548;9.930;2023-01-01T03:20:21;9.52;;;5.28;;
10335;SDS011;5213;53.548;9.930;2023-01-01T03:22:49;8.35;;;5.75;;
10335;SDS011;5213;53.548;9.930;2023-01-01T03:25:40;8.25;;;5.40;;
10335;SDS011;5213;53.548;9.930;2023-01-01T03:28:05;9.65;;;5.72;;
10335;SDS011;5213;53.548;9.930;2023-01-01T03:30:32;8.80;;;6.05;;
10335;SDS011;5213;53.548;9.930;2023-01-01T03:33:02;10.98;;;5.80;;
10335;SDS011;5213;53.548;9.930;2023-01-01T03:35:48;10.77;;;6.00;;
10335;SDS011;5213;53.548;9.930;2023-01-01T03:40:44;10.50;;;6.25;;
10335;SDS011;5213;53.548;9.930;2023-01-01T03:43:12;11.18;;;5.85;;
10335;SDS011;5213;53.548;9.930;2023-01-01T03:45:40;9.95;;;5.90;;
10335;SDS011;5213;53.548;9.930;2023-01-01T03:48:07;10.38;;;5.50;;
10335;SDS011;5213;53.548;9.930;2023-01-01T03:51:08;12.05;;;6.55;;
10335;SDS011;5213;53.548;9.930;2023-01-01T03:53:39;12.38;;;5.72;;
10335;SDS011;5213;53.548;9.930;2023-01-01T03:56:13;9.73;;;5.22;;
10335;SDS011;5213;53.548;9.930;2023-01-01T03:59:06;8.82;;;5.38;;
10335;SDS011;5213;53.548;9.930;2023-01-01T04:01:32;9.05;;;5.38;;
10335;SDS011;5213;53.548;9.930;2023-01-01T04:03:59;9.07;;;5.15;;
10335;SDS011;5213;53.548;9.930;2023-01-01T04:06:26;10.05;;;5.30;;
10335;SDS011;5213;53.548;9.930;2023-01-01T04:08:52;8.35;;;5.28;;
10335;SDS011;5213;53.548;9.930;2023-01-01T04:11:20;11.13;;;5.03;;
10335;SDS011;5213;53.548;9.930;2023-01-01T04:14:06;8.80;;;5.05;;
10335;SDS011;5213;53.548;9.930;2023-01-01T04:16:32;10.27;;;5.10;;
10335;SDS011;5213;53.548;9.930;2023-01-01T04:18:58;9.65;;;5.00;;
10335;SDS011;5213;53.548;9.930;2023-01-01T04:21:24;6.57;;;4.32;;
10335;SDS011;5213;53.548;9.930;2023-01-01T04:23:50;9.25;;;5.07;;
10335;SDS011;5213;53.548;9.930;2023-01-01T04:26:16;7.55;;;5.20;;
10335;SDS011;5213;53.548;9.930;2023-01-01T04:28:42;9.68;;;5.25;;
10335;SDS011;5213;53.548;9.930;2023-01-01T04:31:08;6.53;;;4.30;;
10335;SDS011;5213;53.548;9.930;2023-01-01T04:33:35;7.63;;;4.82;;
10335;SDS011;5213;53.548;9.930;2023-01-01T04:36:02;9.10;;;5.05;;
10335;SDS011;5213;53.548;9.930;2023-01-01T04:38:30;10.18;;;5.07;;
10335;SDS011;5213;53.548;9.930;2023-01-01T04:40:56;7.65;;;5.93;;
10335;SDS011;5213;53.548;9.930;2023-01-01T04:43:22;13.57;;;10.65;;
10335;SDS011;5213;53.548;9.930;2023-01-01T04:45:55;10.18;;;6.57;;
10335;SDS011;5213;53.548;9.930;2023-01-01T04:48:21;5.93;;;4.38;;
10335;SDS011;5213;53.548;9.930;2023-01-01T04:50:57;10.10;;;4.50;;
10335;SDS011;5213;53.548;9.930;2023-01-01T04:53:24;10.48;;;5.40;;
10335;SDS011;5213;53.548;9.930;2023-01-01T04:55:50;8.57;;;4.50;;
10335;SDS011;5213;53.548;9.930;2023-01-01T04:58:16;8.77;;;5.10;;
10335;SDS011;5213;53.548;9.930;2023-01-01T05:00:42;10.88;;;4.95;;
10335;SDS011;5213;53.548;9.930;2023-01-01T05:03:08;7.55;;;4.30;;
10335;SDS011;5213;53.548;9.930;2023-01-01T05:05:34;7.43;;;4.55;;
10335;SDS011;5213;53.548;9.930;2023-01-01T05:08:00;9.18;;;4.50;;
10335;SDS011;5213;53.548;9.930;2023-01-01T05:10:26;9.85;;;4.18;;
10335;SDS011;5213;53.548;9.930;2023-01-01T05:12:52;7.55;;;3.95;;
10335;SDS011;5213;53.548;9.930;2023-01-01T05:15:18;7.65;;;3.95;;
10335;SDS011;5213;53.548;9.930;2023-01-01T05:17:44;6.88;;;4.00;;
10335;SDS011;5213;53.548;9.930;2023-01-01T05:20:10;7.60;;;3.72;;
10335;SDS011;5213;53.548;9.930;2023-01-01T05:22:36;7.97;;;3.78;;
10335;SDS011;5213;53.548;9.930;2023-01-01T05:25:03;6.97;;;3.95;;
10335;SDS011;5213;53.548;9.930;2023-01-01T05:27:29;9.40;;;4.10;;
10335;SDS011;5213;53.548;9.930;2023-01-01T05:29:55;6.97;;;3.78;;
10335;SDS011;5213;53.548;9.930;2023-01-01T05:32:21;8.52;;;4.25;;
10335;SDS011;5213;53.548;9.930;2023-01-01T05:34:47;6.93;;;4.00;;
10335;SDS011;5213;53.548;9.930;2023-01-01T05:37:13;8.88;;;4.38;;
10335;SDS011;5213;53.548;9.930;2023-01-01T05:39:39;9.18;;;4.50;;
10335;SDS011;5213;53.548;9.930;2023-01-01T05:42:05;8.48;;;3.50;;
10335;SDS011;5213;53.548;9.930;2023-01-01T05:44:31;8.15;;;4.55;;
10335;SDS011;5213;53.548;9.930;2023-01-01T05:46:57;7.35;;;3.60;;
10335;SDS011;5213;53.548;9.930;2023-01-01T05:49:23;8.80;;;3.65;;
10335;SDS011;5213;53.548;9.930;2023-01-01T05:51:49;7.53;;;3.75;;
10335;SDS011;5213;53.548;9.930;2023-01-01T05:54:15;9.88;;;3.50;;
10335;SDS011;5213;53.548;9.930;2023-01-01T05:56:41;7.43;;;3.70;;
10335;SDS011;5213;53.548;9.930;2023-01-01T05:59:08;8.80;;;3.72;;
10335;SDS011;5213;53.548;9.930;2023-01-01T06:01:34;7.75;;;3.25;;
10335;SDS011;5213;53.548;9.930;2023-01-01T06:04:00;4.53;;;2.90;;
10335;SDS011;5213;53.548;9.930;2023-01-01T06:06:27;6.93;;;3.28;;
10335;SDS011;5213;53.548;9.930;2023-01-01T06:08:58;7.15;;;2.85;;
10335;SDS011;5213;53.548;9.930;2023-01-01T06:11:25;7.82;;;3.10;;
10335;SDS011;5213;53.548;9.930;2023-01-01T06:13:54;8.75;;;3.30;;
10335;SDS011;5213;53.548;9.930;2023-01-01T06:16:21;6.40;;;3.83;;
10335;SDS011;5213;53.548;9.930;2023-01-01T06:18:47;6.75;;;3.03;;
10335;SDS011;5213;53.548;9.930;2023-01-01T06:21:14;6.30;;;2.95;;
10335;SDS011;5213;53.548;9.930;2023-01-01T06:23:40;8.48;;;3.08;;
10335;SDS011;5213;53.548;9.930;2023-01-01T06:26:10;7.13;;;2.95;;
10335;SDS011;5213;53.548;9.930;2023-01-01T06:28:37;5.10;;;2.90;;
10335;SDS011;5213;53.548;9.930;2023-01-01T06:31:03;5.25;;;2.90;;
10335;SDS011;5213;53.548;9.930;2023-01-01T06:33:30;6.32;;;3.40;;
10335;SDS011;5213;53.548;9.930;2023-01-01T06:35:56;6.05;;;3.25;;
10335;SDS011;5213;53.548;9.930;2023-01-01T06:38:22;7.50;;;2.83;;
10335;SDS011;5213;53.548;9.930;2023-01-01T06:40:55;5.18;;;3.00;;
10335;SDS011;5213;53.548;9.930;2023-01-01T06:43:21;5.78;;;3.17;;
10335;SDS011;5213;53.548;9.930;2023-01-01T06:45:47;6.88;;;3.33;;
10335;SDS011;5213;53.548;9.930;2023-01-01T06:48:13;5.90;;;2.70;;
10335;SDS011;5213;53.548;9.930;2023-01-01T06:50:39;7.55;;;3.05;;
10335;SDS011;5213;53.548;9.930;2023-01-01T06:53:05;7.05;;;2.97;;
10335;SDS011;5213;53.548;9.930;2023-01-01T06:55:31;6.03;;;3.00;;
10335;SDS011;5213;53.548;9.930;2023-01-01T06:57:57;6.13;;;2.95;;
10335;SDS011;5213;53.548;9.930;2023-01-01T07:00:24;7.60;;;2.70;;
10335;SDS011;5213;53.548;9.930;2023-01-01T07:02:50;5.75;;;2.30;;
10335;SDS011;5213;53.548;9.930;2023-01-01T07:05:16;6.78;;;3.33;;
10335;SDS011;5213;53.548;9.930;2023-01-01T07:07:42;7.43;;;3.53;;
10335;SDS011;5213;53.548;9.930;2023-01-01T07:10:08;7.57;;;2.60;;
10335;SDS011;5213;53.548;9.930;2023-01-01T07:12:34;7.15;;;2.95;;
10335;SDS011;5213;53.548;9.930;2023-01-01T07:15:00;6.10;;;2.60;;
10335;SDS011;5213;53.548;9.930;2023-01-01T07:17:26;5.15;;;2.70;;
10335;SDS011;5213;53.548;9.930;2023-01-01T07:19:52;4.63;;;2.60;;
10335;SDS011;5213;53.548;9.930;2023-01-01T07:22:18;4.57;;;2.60;;
10335;SDS011;5213;53.548;9.930;2023-01-01T07:24:44;3.90;;;2.25;;
10335;SDS011;5213;53.548;9.930;2023-01-01T07:27:12;6.85;;;2.20;;
10335;SDS011;5213;53.548;9.930;2023-01-01T07:29:38;5.15;;;2.50;;
10335;SDS011;5213;53.548;9.930;2023-01-01T07:32:04;8.73;;;2.60;;
10335;SDS011;5213;53.548;9.930;2023-01-01T07:34:30;3.35;;;2.35;;
10335;SDS011;5213;53.548;9.930;2023-01-01T07:36:56;5.30;;;2.80;;
10335;SDS011;5213;53.548;9.930;2023-01-01T07:39:23;5.93;;;2.15;;
10335;SDS011;5213;53.548;9.930;2023-01-01T07:41:50;5.05;;;2.42;;
10335;SDS011;5213;53.548;9.930;2023-01-01T07:44:16;5.35;;;2.20;;
10335;SDS011;5213;53.548;9.930;2023-01-01T07:46:42;6.00;;;2.10;;
10335;SDS011;5213;53.548;9.930;2023-01-01T07:49:08;6.78;;;2.15;;
10335;SDS011;5213;53.548;9.930;2023-01-01T07:51:34;5.00;;;2.10;;
10335;SDS011;5213;53.548;9.930;2023-01-01T07:54:00;7.57;;;1.92;;
10335;SDS011;5213;53.548;9.930;2023-01-01T07:56:26;5.82;;;2.10;;
10335;SDS011;5213;53.548;9.930;2023-01-01T07:58:52;2.63;;;1.70;;
10335;SDS011;5213;53.548;9.930;2023-01-01T08:01:18;3.83;;;1.75;;
10335;SDS011;5213;53.548;9.930;2023-01-01T08:03:48;4.53;;;1.90;;
10335;SDS011;5213;53.548;9.930;2023-01-01T08:06:15;4.45;;;2.22;;
10335;SDS011;5213;53.548;9.930;2023-01-01T08:08:41;4.10;;;1.80;;
10335;SDS011;5213;53.548;9.930;2023-01-01T08:11:07;2.78;;;1.70;;
10335;SDS011;5213;53.548;9.930;2023-01-01T08:13:33;4.35;;;1.80;;
10335;SDS011;5213;53.548;9.930;2023-01-01T08:16:00;3.88;;;1.73;;
10335;SDS011;5213;53.548;9.930;2023-01-01T08:18:26;5.88;;;2.00;;
10335;SDS011;5213;53.548;9.930;2023-01-01T08:20:52;2.95;;;1.50;;
10335;SDS011;5213;53.548;9.930;2023-01-01T08:23:18;4.80;;;1.75;;
10335;SDS011;5213;53.548;9.930;2023-01-01T08:25:44;5.00;;;1.73;;
10335;SDS011;5213;53.548;9.930;2023-01-01T08:28:10;3.58;;;1.83;;
10335;SDS011;5213;53.548;9.930;2023-01-01T08:30:36;3.33;;;1.60;;
10335;SDS011;5213;53.548;9.930;2023-01-01T08:33:02;2.63;;;1.60;;
10335;SDS011;5213;53.548;9.930;2023-01-01T08:35:28;2.67;;;1.70;;
10335;SDS011;5213;53.548;9.930;2023-01-01T08:37:54;2.78;;;1.88;;
10335;SDS011;5213;53.548;9.930;2023-01-01T08:40:20;4.22;;;1.77;;
10335;SDS011;5213;53.548;9.930;2023-01-01T08:42:46;5.20;;;1.77;;
10335;SDS011;5213;53.548;9.930;2023-01-01T08:45:12;2.35;;;1.52;;
10335;SDS011;5213;53.548;9.930;2023-01-01T08:47:38;4.38;;;1.38;;
10335;SDS011;5213;53.548;9.930;2023-01-01T08:50:04;2.70;;;1.67;;
10335;SDS011;5213;53.548;9.930;2023-01-01T08:52:31;1.77;;;1.65;;
10335;SDS011;5213;53.548;9.930;2023-01-01T08:54:57;5.43;;;1.63;;
10335;SDS011;5213;53.548;9.930;2023-01-01T08:57:23;3.22;;;1.45;;
10335;SDS011;5213;53.548;9.930;2023-01-01T08:59:49;1.92;;;1.80;;
10335;SDS011;5213;53.548;9.930;2023-01-01T09:02:15;3.65;;;2.10;;
10335;SDS011;5213;53.548;9.930;2023-01-01T09:04:41;3.95;;;2.08;;
10335;SDS011;5213;53.548;9.930;2023-01-01T09:07:07;1.65;;;1.55;;
10335;SDS011;5213;53.548;9.930;2023-01-01T09:09:33;2.28;;;1.38;;
10335;SDS011;5213;53.548;9.930;2023-01-01T09:11:59;2.70;;;1.58;;
10335;SDS011;5213;53.548;9.930;2023-01-01T09:14:29;2.80;;;1.70;;
10335;SDS011;5213;53.548;9.930;2023-01-01T09:16:56;4.22;;;1.60;;
10335;SDS011;5213;53.548;9.930;2023-01-01T09:19:22;2.63;;;1.42;;
10335;SDS011;5213;53.548;9.930;2023-01-01T09:21:48;5.97;;;2.08;;
10335;SDS011;5213;53.548;9.930;2023-01-01T09:24:14;2.97;;;1.35;;
10335;SDS011;5213;53.548;9.930;2023-01-01T09:26:40;3.17;;;1.40;;
10335;SDS011;5213;53.548;9.930;2023-01-01T09:29:06;3.80;;;1.38;;
10335;SDS011;5213;53.548;9.930;2023-01-01T09:31:32;3.90;;;1.48;;
10335;SDS011;5213;53.548;9.930;2023-01-01T09:33:58;3.00;;;1.70;;
10335;SDS011;5213;53.548;9.930;2023-01-01T09:36:29;3.97;;;1.40;;
10335;SDS011;5213;53.548;9.930;2023-01-01T09:38:55;2.35;;;1.35;;
10335;SDS011;5213;53.548;9.930;2023-01-01T09:41:31;2.53;;;1.60;;
10335;SDS011;5213;53.548;9.930;2023-01-01T09:46:28;2.75;;;1.30;;
10335;SDS011;5213;53.548;9.930;2023-01-01T09:48:57;2.97;;;1.35;;
10335;SDS011;5213;53.548;9.930;2023-01-01T09:51:25;1.67;;;1.30;;
10335;SDS011;5213;53.548;9.930;2023-01-01T09:54:00;2.83;;;1.73;;
10335;SDS011;5213;53.548;9.930;2023-01-01T09:56:31;3.08;;;1.27;;
10335;SDS011;5213;53.548;9.930;2023-01-01T09:58:58;3.83;;;1.50;;
10335;SDS011;5213;53.548;9.930;2023-01-01T10:01:33;3.50;;;1.40;;
10335;SDS011;5213;53.548;9.930;2023-01-01T10:06:51;4.03;;;1.60;;
10335;SDS011;5213;53.548;9.930;2023-01-01T10:09:25;2.20;;;1.48;;
10335;SDS011;5213;53.548;9.930;2023-01-01T10:14:41;4.10;;;1.65;;
10335;SDS011;5213;53.548;9.930;2023-01-01T10:17:15;4.40;;;1.63;;
10335;SDS011;5213;53.548;9.930;2023-01-01T10:19:49;4.03;;;1.98;;
10335;SDS011;5213;53.548;9.930;2023-01-01T10:22:21;5.68;;;1.83;;
10335;SDS011;5213;53.548;9.930;2023-01-01T10:24:50;3.38;;;1.73;;
10335;SDS011;5213;53.548;9.930;2023-01-01T10:27:22;4.85;;;1.92;;
10335;SDS011;5213;53.548;9.930;2023-01-01T10:29:49;2.38;;;1.80;;
10335;SDS011;5213;53.548;9.930;2023-01-01T10:32:18;2.33;;;1.55;;
10335;SDS011;5213;53.548;9.930;2023-01-01T10:34:44;4.30;;;1.60;;
10335;SDS011;5213;53.548;9.930;2023-01-01T10:37:10;2.58;;;1.20;;
10335;SDS011;5213;53.548;9.930;2023-01-01T10:39:39;3.17;;;1.25;;
10335;SDS011;5213;53.548;9.930;2023-01-01T10:42:05;2.15;;;1.40;;
10335;SDS011;5213;53.548;9.930;2023-01-01T10:44:32;2.13;;;1.40;;
10335;SDS011;5213;53.548;9.930;2023-01-01T10:46:59;3.30;;;1.40;;
10335;SDS011;5213;53.548;9.930;2023-01-01T10:49:27;2.30;;;1.45;;
10335;SDS011;5213;53.548;9.930;2023-01-01T10:51:53;4.55;;;1.40;;
10335;SDS011;5213;53.548;9.930;2023-01-01T10:56:54;2.90;;;1.30;;
10335;SDS011;5213;53.548;9.930;2023-01-01T10:59:31;2.75;;;1.55;;
10335;SDS011;5213;53.548;9.930;2023-01-01T11:04:43;2.38;;;1.30;;
10335;SDS011;5213;53.548;9.930;2023-01-01T11:07:11;4.18;;;1.45;;
10335;SDS011;5213;53.548;9.930;2023-01-01T11:09:40;2.75;;;1.27;;
10335;SDS011;5213;53.548;9.930;2023-01-01T11:12:07;2.22;;;1.40;;
10335;SDS011;5213;53.548;9.930;2023-01-01T11:14:48;3.90;;;1.48;;
10335;SDS011;5213;53.548;9.930;2023-01-01T11:17:35;3.30;;;1.40;;
10335;SDS011;5213;53.548;9.930;2023-01-01T11:20:01;2.45;;;1.48;;
10335;SDS011;5213;53.548;9.930;2023-01-01T11:22:36;3.17;;;1.20;;
10335;SDS011;5213;53.548;9.930;2023-01-01T11:25:02;3.75;;;1.40;;
10335;SDS011;5213;53.548;9.930;2023-01-01T11:27:29;1.83;;;1.10;;
10335;SDS011;5213;53.548;9.930;2023-01-01T11:30:40;4.15;;;1.30;;
10335;SDS011;5213;53.548;9.930;2023-01-01T11:32:41;2.80;;;1.25;;
10335;SDS011;5213;53.548;9.930;2023-01-01T11:35:13;3.10;;;1.33;;
10335;SDS011;5213;53.548;9.930;2023-01-01T11:37:40;2.70;;;1.10;;
10335;SDS011;5213;53.548;9.930;2023-01-01T11:40:14;4.75;;;1.25;;
10335;SDS011;5213;53.548;9.930;2023-01-01T11:42:44;2.10;;;1.02;;
10335;SDS011;5213;53.548;9.930;2023-01-01T11:47:40;2.38;;;1.13;;
10335;SDS011;5213;53.548;9.930;2023-01-01T11:52:46;1.83;;;0.93;;
10335;SDS011;5213;53.548;9.930;2023-01-01T11:58:12;2.42;;;1.17;;
10335;SDS011;5213;53.548;9.930;2023-01-01T12:00:38;2.88;;;1.23;;
10335;SDS011;5213;53.548;9.930;2023-01-01T12:03:10;3.95;;;1.20;;
10335;SDS011;5213;53.548;9.930;2023-01-01T12:05:57;2.60;;;1.10;;
10335;SDS011;5213;53.548;9.930;2023-01-01T12:08:27;4.25;;;1.05;;
10335;SDS011;5213;53.548;9.930;2023-01-01T12:11:02;2.53;;;1.10;;
10335;SDS011;5213;53.548;9.930;2023-01-01T12:13:32;3.60;;;1.50;;
10335;SDS011;5213;53.548;9.930;2023-01-01T12:16:11;5.90;;;1.40;;
10335;SDS011;5213;53.548;9.930;2023-01-01T12:18:40;2.25;;;0.98;;
10335;SDS011;5213;53.548;9.930;2023-01-01T12:21:16;3.00;;;1.35;;
10335;SDS011;5213;53.548;9.930;2023-01-01T12:23:43;3.88;;;1.45;;
10335;SDS011;5213;53.548;9.930;2023-01-01T12:36:21;2.67;;;1.05;;
10335;SDS011;5213;53.548;9.930;2023-01-01T12:41:29;2.75;;;1.25;;
10335;SDS011;5213;53.548;9.930;2023-01-01T12:46:35;4.43;;;1.17;;
10335;SDS011;5213;53.548;9.930;2023-01-01T12:57:18;3.50;;;1.40;;
10335;SDS011;5213;53.548;9.930;2023-01-01T12:59:51;2.30;;;1.23;;
10335;SDS011;5213;53.548;9.930;2023-01-01T13:02:22;3.05;;;1.00;;
10335;SDS011;5213;53.548;9.930;2023-01-01T13:04:49;4.68;;;1.20;;
10335;SDS011;5213;53.548;9.930;2023-01-01T13:07:17;4.28;;;2.17;;
10335;SDS011;5213;53.548;9.930;2023-01-01T13:09:46;4.22;;;1.38;;
10335;SDS011;5213;53.548;9.930;2023-01-01T13:12:13;4.03;;;1.90;;
10335;SDS011;5213;53.548;9.930;2023-01-01T13:14:44;4.18;;;1.40;;
10335;SDS011;5213;53.548;9.930;2023-01-01T13:17:26;4.88;;;1.65;;
10335;SDS011;5213;53.548;9.930;2023-01-01T13:25:04;3.75;;;1.50;;
10335;SDS011;5213;53.548;9.930;2023-01-01T13:35:35;7.35;;;1.77;;
10335;SDS011;5213;53.548;9.930;2023-01-01T13:38:01;4.47;;;1.52;;
10335;SDS011;5213;53.548;9.930;2023-01-01T13:40:28;4.60;;;1.70;;
10335;SDS011;5213;53.548;9.930;2023-01-01T13:47:55;6.40;;;1.92;;
10335;SDS011;5213;53.548;9.930;2023-01-01T13:50:29;4.82;;;1.50;;
10335;SDS011;5213;53.548;9.930;2023-01-01T13:53:02;4.60;;;1.33;;
10335;SDS011;5213;53.548;9.930;2023-01-01T13:55:34;3.85;;;1.60;;
10335;SDS011;5213;53.548;9.930;2023-01-01T14:03:22;4.55;;;1.50;;
10335;SDS011;5213;53.548;9.930;2023-01-01T14:05:59;4.55;;;1.60;;
10335;SDS011;5213;53.548;9.930;2023-01-01T14:08:34;4.30;;;1.83;;
10335;SDS011;5213;53.548;9.930;2023-01-01T14:11:01;5.57;;;1.70;;
10335;SDS011;5213;53.548;9.930;2023-01-01T14:13:28;5.07;;;2.03;;
10335;SDS011;5213;53.548;9.930;2023-01-01T14:18:30;3.55;;;1.40;;
10335;SDS011;5213;53.548;9.930;2023-01-01T14:20:57;5.82;;;1.70;;
10335;SDS011;5213;53.548;9.930;2023-01-01T14:23:33;5.32;;;1.30;;
10335;SDS011;5213;53.548;9.930;2023-01-01T14:26:00;6.72;;;2.05;;
10335;SDS011;5213;53.548;9.930;2023-01-01T14:28:28;5.15;;;1.88;;
10335;SDS011;5213;53.548;9.930;2023-01-01T14:30:55;5.47;;;1.40;;
10335;SDS011;5213;53.548;9.930;2023-01-01T14:33:29;6.72;;;1.70;;
10335;SDS011;5213;53.548;9.930;2023-01-01T14:35:59;5.03;;;1.60;;
10335;SDS011;5213;53.548;9.930;2023-01-01T14:38:26;6.47;;;1.60;;
10335;SDS011;5213;53.548;9.930;2023-01-01T14:43:38;5.60;;;1.60;;
10335;SDS011;5213;53.548;9.930;2023-01-01T14:46:05;4.05;;;1.58;;
10335;SDS011;5213;53.548;9.930;2023-01-01T14:48:32;6.15;;;1.55;;
10335;SDS011;5213;53.548;9.930;2023-01-01T14:50:58;5.78;;;1.60;;
10335;SDS011;5213;53.548;9.930;2023-01-01T14:53:31;4.70;;;1.48;;
10335;SDS011;5213;53.548;9.930;2023-01-01T14:55:58;8.43;;;1.83;;
10335;SDS011;5213;53.548;9.930;2023-01-01T14:58:25;7.50;;;1.83;;
10335;SDS011;5213;53.548;9.930;2023-01-01T15:00:52;5.63;;;1.85;;
10335;SDS011;5213;53.548;9.930;2023-01-01T15:03:19;6.65;;;1.83;;
10335;SDS011;5213;53.548;9.930;2023-01-01T15:05:55;4.53;;;1.80;;
10335;SDS011;5213;53.548;9.930;2023-01-01T15:08:22;5.65;;;1.90;;
10335;SDS011;5213;53.548;9.930;2023-01-01T15:10:49;5.10;;;1.63;;
10335;SDS011;5213;53.548;9.930;2023-01-01T15:13:17;7.55;;;2.15;;
10335;SDS011;5213;53.548;9.930;2023-01-01T15:15:44;3.80;;;1.55;;
10335;SDS011;5213;53.548;9.930;2023-01-01T15:20:55;6.05;;;1.80;;
10335;SDS011;5213;53.548;9.930;2023-01-01T15:23:21;8.07;;;2.03;;
10335;SDS011;5213;53.548;9.930;2023-01-01T15:25:47;3.97;;;1.67;;
10335;SDS011;5213;53.548;9.930;2023-01-01T15:28:17;3.85;;;1.55;;
10335;SDS011;5213;53.548;9.930;2023-01-01T15:30:44;5.53;;;1.95;;
10335;SDS011;5213;53.548;9.930;2023-01-01T15:33:14;6.25;;;2.22;;
10335;SDS011;5213;53.548;9.930;2023-01-01T15:35:44;9.57;;;2.00;;
10335;SDS011;5213;53.548;9.930;2023-01-01T15:38:24;6.13;;;1.83;;
10335;SDS011;5213;53.548;9.930;2023-01-01T15:40:51;7.78;;;1.92;;
10335;SDS011;5213;53.548;9.930;2023-01-01T15:43:18;7.43;;;1.80;;
10335;SDS011;5213;53.548;9.930;2023-01-01T15:45:52;7.30;;;2.38;;
10335;SDS011;5213;53.548;9.930;2023-01-01T15:48:27;6.45;;;1.98;;
10335;SDS011;5213;53.548;9.930;2023-01-01T15:51:11;6.38;;;2.30;;
10335;SDS011;5213;53.548;9.930;2023-01-01T15:54:12;5.20;;;1.80;;
10335;SDS011;5213;53.548;9.930;2023-01-01T15:56:31;7.88;;;2.13;;
10335;SDS011;5213;53.548;9.930;2023-01-01T15:59:02;6.43;;;1.83;;
10335;SDS011;5213;53.548;9.930;2023-01-01T16:01:29;7.03;;;1.90;;
10335;SDS011;5213;53.548;9.930;2023-01-01T16:04:00;8.52;;;2.10;;
10335;SDS011;5213;53.548;9.930;2023-01-01T16:06:27;6.50;;;2.17;;
10335;SDS011;5213;53.548;9.930;2023-01-01T16:08:53;6.15;;;2.30;;
10335;SDS011;5213;53.548;9.930;2023-01-01T16:11:19;5.05;;;2.03;;
10335;SDS011;5213;53.548;9.930;2023-01-01T16:13:45;6.88;;;2.20;;
10335;SDS011;5213;53.548;9.930;2023-01-01T16:16:21;7.35;;;2.10;;
10335;SDS011;5213;53.548;9.930;2023-01-01T16:18:48;5.53;;;1.88;;
10335;SDS011;5213;53.548;9.930;2023-01-01T16:21:14;4.18;;;2.13;;
10335;SDS011;5213;53.548;9.930;2023-01-01T16:23:40;4.68;;;1.80;;
10335;SDS011;5213;53.548;9.930;2023-01-01T16:26:06;6.32;;;2.20;;
10335;SDS011;5213;53.548;9.930;2023-01-01T16:28:32;9.18;;;2.45;;
10335;SDS011;5213;53.548;9.930;2023-01-01T16:30:59;5.93;;;2.10;;
10335;SDS011;5213;53.548;9.930;2023-01-01T16:33:25;6.18;;;2.17;;
10335;SDS011;5213;53.548;9.930;2023-01-01T16:35:53;6.03;;;2.10;;
10335;SDS011;5213;53.548;9.930;2023-01-01T16:38:20;6.28;;;2.20;;
10335;SDS011;5213;53.548;9.930;2023-01-01T16:40:46;7.88;;;2.28;;
10335;SDS011;5213;53.548;9.930;2023-01-01T16:43:14;8.82;;;2.65;;
10335;SDS011;5213;53.548;9.930;2023-01-01T16:45:40;5.35;;;2.17;;
10335;SDS011;5213;53.548;9.930;2023-01-01T16:48:06;6.85;;;2.67;;
10335;SDS011;5213;53.548;9.930;2023-01-01T16:50:32;6.90;;;2.47;;
10335;SDS011;5213;53.548;9.930;2023-01-01T16:52:58;6.05;;;2.13;;
10335;SDS011;5213;53.548;9.930;2023-01-01T16:55:24;4.93;;;2.10;;